sensor_id;sensor_type;location;lat;lon;timestamp;temperature;humidity
68248;SHT30;55064;49.636;12.164;2022-12-05T00:01:42;3.77;97.50
68248;SHT30;55064;49.636;12.164;2022-12-05T00:04:12;3.77;97.37
68248;SHT30;55064;49.636;12.164;2022-12-05T00:06:43;3.77;97.32
68248;SHT30;55064;49.636;12.164;2022-12-05T00:09:13;3.84;97.20
68248;SHT30;55064;49.636;12.164;2022-12-05T00:11:40;3.86;97.25
68248;SHT30;55064;49.636;12.164;2022-12-05T00:14:07;3.87;97.09
68248;SHT30;55064;49.636;12.164;2022-12-05T00:16:38;3.84;97.45
68248;SHT30;55064;49.636;12.164;2022-12-05T00:19:07;3.73;97.92
68248;SHT30;55064;49.636;12.164;2022-12-05T00:21:35;3.74;97.89
68248;SHT30;55064;49.636;12.164;2022-12-05T00:24:02;3.74;97.99
68248;SHT30;55064;49.636;12.164;2022-12-05T00:26:31;3.72;98.05
68248;SHT30;55064;49.636;12.164;2022-12-05T00:28:56;3.70;98.23
68248;SHT30;55064;49.636;12.164;2022-12-05T00:31:23;3.72;98.16
68248;SHT30;55064;49.636;12.164;2022-12-05T00:33:58;3.77;97.97
68248;SHT30;55064;49.636;12.164;2022-12-05T00:36:28;3.76;97.85
68248;SHT30;55064;49.636;12.164;2022-12-05T00:38:58;3.74;97.99
68248;SHT30;55064;49.636;12.164;2022-12-05T00:41:26;3.73;98.03
68248;SHT30;55064;49.636;12.164;2022-12-05T00:43:52;3.72;98.23
68248;SHT30;55064;49.636;12.164;2022-12-05T00:46:25;3.70;98.29
68248;SHT30;55064;49.636;12.164;2022-12-05T00:48:55;3.72;98.20
68248;SHT30;55064;49.636;12.164;2022-12-05T00:51:24;3.70;98.24
68248;SHT30;55064;49.636;12.164;2022-12-05T00:53:51;3.74;97.92
68248;SHT30;55064;49.636;12.164;2022-12-05T00:56:20;3.72;98.20
68248;SHT30;55064;49.636;12.164;2022-12-05T00:58:46;3.73;98.17
68248;SHT30;55064;49.636;12.164;2022-12-05T01:01:16;3.76;98.03
68248;SHT30;55064;49.636;12.164;2022-12-05T01:03:44;3.76;97.91
68248;SHT30;55064;49.636;12.164;2022-12-05T01:06:14;3.72;98.19
68248;SHT30;55064;49.636;12.164;2022-12-05T01:08:39;3.63;98.34
68248;SHT30;55064;49.636;12.164;2022-12-05T01:11:09;3.67;98.42
68248;SHT30;55064;49.636;12.164;2022-12-05T01:13:39;3.72;98.00
68248;SHT30;55064;49.636;12.164;2022-12-05T01:16:32;3.72;98.04
68248;SHT30;55064;49.636;12.164;2022-12-05T01:19:03;3.70;98.14
68248;SHT30;55064;49.636;12.164;2022-12-05T01:21:31;3.79;97.77
68248;SHT30;55064;49.636;12.164;2022-12-05T01:23:59;3.74;97.58
68248;SHT30;55064;49.636;12.164;2022-12-05T01:26:26;3.76;97.84
68248;SHT30;55064;49.636;12.164;2022-12-05T01:28:52;3.76;97.87
68248;SHT30;55064;49.636;12.164;2022-12-05T01:33:46;3.70;98.12
68248;SHT30;55064;49.636;12.164;2022-12-05T01:36:11;3.72;98.12
68248;SHT30;55064;49.636;12.164;2022-12-05T01:38:39;3.66;98.16
68248;SHT30;55064;49.636;12.164;2022-12-05T01:41:06;3.70;97.70
68248;SHT30;55064;49.636;12.164;2022-12-05T01:43:31;3.72;97.78
68248;SHT30;55064;49.636;12.164;2022-12-05T01:45:57;3.80;97.42
68248;SHT30;55064;49.636;12.164;2022-12-05T01:48:34;3.82;97.15
68248;SHT30;55064;49.636;12.164;2022-12-05T01:51:03;3.72;97.70
68248;SHT30;55064;49.636;12.164;2022-12-05T01:53:29;3.74;97.49
68248;SHT30;55064;49.636;12.164;2022-12-05T01:55:57;3.73;97.36
68248;SHT30;55064;49.636;12.164;2022-12-05T01:58:23;3.76;97.38
68248;SHT30;55064;49.636;12.164;2022-12-05T02:00:52;3.77;97.33
68248;SHT30;55064;49.636;12.164;2022-12-05T02:03:18;3.80;97.26
68248;SHT30;55064;49.636;12.164;2022-12-05T02:05:49;3.79;97.28
68248;SHT30;55064;49.636;12.164;2022-12-05T02:08:20;3.82;97.24
68248;SHT30;55064;49.636;12.164;2022-12-05T02:10:48;3.73;97.65
68248;SHT30;55064;49.636;12.164;2022-12-05T02:30:22;3.70;98.82
68248;SHT30;55064;49.636;12.164;2022-12-05T02:35:54;3.65;99.10
68248;SHT30;55064;49.636;12.164;2022-12-05T02:46:24;3.63;99.67
68248;SHT30;55064;49.636;12.164;2022-12-05T02:48:53;3.62;99.76
68248;SHT30;55064;49.636;12.164;2022-12-05T02:51:21;3.66;99.66
68248;SHT30;55064;49.636;12.164;2022-12-05T02:53:49;3.67;99.53
68248;SHT30;55064;49.636;12.164;2022-12-05T02:56:16;3.70;99.72
68248;SHT30;55064;49.636;12.164;2022-12-05T02:58:50;3.62;99.78
68248;SHT30;55064;49.636;12.164;2022-12-05T03:01:24;3.60;99.99
68248;SHT30;55064;49.636;12.164;2022-12-05T03:03:54;3.59;99.88
68248;SHT30;55064;49.636;12.164;2022-12-05T03:06:38;3.62;99.89
68248;SHT30;55064;49.636;12.164;2022-12-05T03:09:11;3.60;99.99
68248;SHT30;55064;49.636;12.164;2022-12-05T03:12:01;3.60;99.99
68248;SHT30;55064;49.636;12.164;2022-12-05T03:14:34;3.59;99.99
68248;SHT30;55064;49.636;12.164;2022-12-05T03:17:05;3.65;99.99
68248;SHT30;55064;49.636;12.164;2022-12-05T03:19:39;3.63;99.99
68248;SHT30;55064;49.636;12.164;2022-12-05T03:22:29;3.59;99.99
68248;SHT30;55064;49.636;12.164;2022-12-05T03:25:02;3.62;99.99
68248;SHT30;55064;49.636;12.164;2022-12-05T03:27:52;3.63;99.99
68248;SHT30;55064;49.636;12.164;2022-12-05T03:30:24;3.65;99.99
68248;SHT30;55064;49.636;12.164;2022-12-05T03:36:12;3.65;99.99
68248;SHT30;55064;49.636;12.164;2022-12-05T03:38:55;3.60;99.99
68248;SHT30;55064;49.636;12.164;2022-12-05T03:41:40;3.59;99.99
68248;SHT30;55064;49.636;12.164;2022-12-05T03:44:28;3.63;99.99
68248;SHT30;55064;49.636;12.164;2022-12-05T03:47:05;3.65;99.99
68248;SHT30;55064;49.636;12.164;2022-12-05T03:49:40;3.62;99.99
68248;SHT30;55064;49.636;12.164;2022-12-05T03:52:22;3.60;99.99
68248;SHT30;55064;49.636;12.164;2022-12-05T03:54:55;3.62;99.99
68248;SHT30;55064;49.636;12.164;2022-12-05T03:57:26;3.65;99.99
68248;SHT30;55064;49.636;12.164;2022-12-05T04:00:00;3.67;99.99
68248;SHT30;55064;49.636;12.164;2022-12-05T04:02:34;3.63;99.99
68248;SHT30;55064;49.636;12.164;2022-12-05T04:05:35;3.65;99.99
68248;SHT30;55064;49.636;12.164;2022-12-05T04:08:04;3.65;99.99
68248;SHT30;55064;49.636;12.164;2022-12-05T04:10:36;3.62;99.99
68248;SHT30;55064;49.636;12.164;2022-12-05T04:13:15;3.63;99.99
68248;SHT30;55064;49.636;12.164;2022-12-05T04:15:49;3.63;99.99
68248;SHT30;55064;49.636;12.164;2022-12-05T04:18:40;3.66;99.99
68248;SHT30;55064;49.636;12.164;2022-12-05T04:21:08;3.74;99.99
68248;SHT30;55064;49.636;12.164;2022-12-05T04:23:54;3.74;99.99
68248;SHT30;55064;49.636;12.164;2022-12-05T04:32:21;3.72;99.99
68248;SHT30;55064;49.636;12.164;2022-12-05T04:34:57;3.66;99.99
68248;SHT30;55064;49.636;12.164;2022-12-05T04:37:25;3.66;99.99
68248;SHT30;55064;49.636;12.164;2022-12-05T04:40:00;3.74;99.99
68248;SHT30;55064;49.636;12.164;2022-12-05T04:42:28;3.72;99.99
68248;SHT30;55064;49.636;12.164;2022-12-05T04:45:01;3.73;99.99
68248;SHT30;55064;49.636;12.164;2022-12-05T04:47:32;3.73;99.99
68248;SHT30;55064;49.636;12.164;2022-12-05T04:50:03;3.72;99.99
68248;SHT30;55064;49.636;12.164;2022-12-05T04:52:29;3.73;99.99
68248;SHT30;55064;49.636;12.164;2022-12-05T04:55:02;3.70;99.99
68248;SHT30;55064;49.636;12.164;2022-12-05T05:00:42;3.74;99.99
68248;SHT30;55064;49.636;12.164;2022-12-05T05:03:40;3.76;99.99
68248;SHT30;55064;49.636;12.164;2022-12-05T05:06:06;3.82;99.99
68248;SHT30;55064;49.636;12.164;2022-12-05T05:08:32;3.83;99.99
68248;SHT30;55064;49.636;12.164;2022-12-05T05:11:13;3.83;99.99
68248;SHT30;55064;49.636;12.164;2022-12-05T05:13:39;3.91;99.99
68248;SHT30;55064;49.636;12.164;2022-12-05T05:16:16;3.84;99.99
68248;SHT30;55064;49.636;12.164;2022-12-05T05:18:43;3.79;99.99
68248;SHT30;55064;49.636;12.164;2022-12-05T05:21:20;3.76;99.99
68248;SHT30;55064;49.636;12.164;2022-12-05T05:23:48;3.77;99.99
68248;SHT30;55064;49.636;12.164;2022-12-05T05:26:15;3.80;99.99
68248;SHT30;55064;49.636;12.164;2022-12-05T05:28:41;3.82;99.99
68248;SHT30;55064;49.636;12.164;2022-12-05T05:31:07;3.83;99.99
68248;SHT30;55064;49.636;12.164;2022-12-05T05:33:35;3.83;99.99
68248;SHT30;55064;49.636;12.164;2022-12-05T05:36:07;3.86;99.99
68248;SHT30;55064;49.636;12.164;2022-12-05T05:38:37;3.83;99.99
68248;SHT30;55064;49.636;12.164;2022-12-05T05:41:03;3.87;99.99
68248;SHT30;55064;49.636;12.164;2022-12-05T05:43:30;3.86;99.99
68248;SHT30;55064;49.636;12.164;2022-12-05T05:46:02;3.84;99.99
68248;SHT30;55064;49.636;12.164;2022-12-05T05:48:33;3.82;99.99
68248;SHT30;55064;49.636;12.164;2022-12-05T05:51:02;3.87;99.99
68248;SHT30;55064;49.636;12.164;2022-12-05T05:53:32;3.89;99.99
68248;SHT30;55064;49.636;12.164;2022-12-05T05:56:14;3.93;99.99
68248;SHT30;55064;49.636;12.164;2022-12-05T05:58:43;3.91;99.99
68248;SHT30;55064;49.636;12.164;2022-12-05T06:01:10;3.89;99.99
68248;SHT30;55064;49.636;12.164;2022-12-05T06:03:36;3.89;99.99
68248;SHT30;55064;49.636;12.164;2022-12-05T06:06:07;3.89;99.99
68248;SHT30;55064;49.636;12.164;2022-12-05T06:08:34;3.89;99.99
68248;SHT30;55064;49.636;12.164;2022-12-05T06:11:10;3.86;99.99
68248;SHT30;55064;49.636;12.164;2022-12-05T06:13:36;3.84;99.99
68248;SHT30;55064;49.636;12.164;2022-12-05T06:16:07;3.87;99.99
68248;SHT30;55064;49.636;12.164;2022-12-05T06:18:38;3.93;99.99
68248;SHT30;55064;49.636;12.164;2022-12-05T06:21:04;3.90;99.99
68248;SHT30;55064;49.636;12.164;2022-12-05T06:23:33;3.90;99.99
68248;SHT30;55064;49.636;12.164;2022-12-05T06:26:08;3.87;99.99
68248;SHT30;55064;49.636;12.164;2022-12-05T06:28:39;3.87;99.99
68248;SHT30;55064;49.636;12.164;2022-12-05T06:31:17;3.94;99.99
68248;SHT30;55064;49.636;12.164;2022-12-05T06:33:48;3.89;99.99
68248;SHT30;55064;49.636;12.164;2022-12-05T06:36:18;3.89;99.99
68248;SHT30;55064;49.636;12.164;2022-12-05T06:38:44;3.86;99.99
68248;SHT30;55064;49.636;12.164;2022-12-05T06:41:17;3.87;99.99
68248;SHT30;55064;49.636;12.164;2022-12-05T06:43:55;3.86;99.99
68248;SHT30;55064;49.636;12.164;2022-12-05T06:46:24;3.87;99.99
68248;SHT30;55064;49.636;12.164;2022-12-05T06:49:09;3.86;99.99
68248;SHT30;55064;49.636;12.164;2022-12-05T06:51:36;3.87;99.99
68248;SHT30;55064;49.636;12.164;2022-12-05T06:54:02;3.84;99.99
68248;SHT30;55064;49.636;12.164;2022-12-05T06:56:29;3.83;99.99
68248;SHT30;55064;49.636;12.164;2022-12-05T06:58:57;3.83;99.99
68248;SHT30;55064;49.636;12.164;2022-12-05T07:01:26;3.84;99.99
68248;SHT30;55064;49.636;12.164;2022-12-05T07:04:12;3.86;99.99
68248;SHT30;55064;49.636;12.164;2022-12-05T07:06:40;3.87;99.99
68248;SHT30;55064;49.636;12.164;2022-12-05T07:09:06;3.89;99.99
68248;SHT30;55064;49.636;12.164;2022-12-05T07:11:34;3.84;99.99
68248;SHT30;55064;49.636;12.164;2022-12-05T07:14:00;3.89;99.99
68248;SHT30;55064;49.636;12.164;2022-12-05T07:16:28;3.84;99.99
68248;SHT30;55064;49.636;12.164;2022-12-05T07:18:56;3.83;99.99
68248;SHT30;55064;49.636;12.164;2022-12-05T07:21:24;3.83;99.99
68248;SHT30;55064;49.636;12.164;2022-12-05T07:23:53;3.86;99.99
68248;SHT30;55064;49.636;12.164;2022-12-05T07:26:23;3.82;99.99
68248;SHT30;55064;49.636;12.164;2022-12-05T07:28:49;3.79;99.99
68248;SHT30;55064;49.636;12.164;2022-12-05T07:31:20;3.80;99.99
68248;SHT30;55064;49.636;12.164;2022-12-05T07:33:50;3.82;99.99
68248;SHT30;55064;49.636;12.164;2022-12-05T07:36:18;3.80;99.99
68248;SHT30;55064;49.636;12.164;2022-12-05T07:38:47;3.80;99.99
68248;SHT30;55064;49.636;12.164;2022-12-05T07:43:53;3.84;99.99
68248;SHT30;55064;49.636;12.164;2022-12-05T07:46:18;3.83;99.99
68248;SHT30;55064;49.636;12.164;2022-12-05T07:48:46;3.84;99.99
68248;SHT30;55064;49.636;12.164;2022-12-05T07:51:12;3.89;99.99
68248;SHT30;55064;49.636;12.164;2022-12-05T07:53:40;3.82;99.99
68248;SHT30;55064;49.636;12.164;2022-12-05T07:56:11;3.80;99.99
68248;SHT30;55064;49.636;12.164;2022-12-05T07:58:39;3.80;99.99
68248;SHT30;55064;49.636;12.164;2022-12-05T08:01:25;3.86;99.99
68248;SHT30;55064;49.636;12.164;2022-12-05T08:03:53;3.79;99.99
68248;SHT30;55064;49.636;12.164;2022-12-05T08:06:22;3.83;99.99
68248;SHT30;55064;49.636;12.164;2022-12-05T08:08:50;3.82;99.99
68248;SHT30;55064;49.636;12.164;2022-12-05T08:11:29;3.77;99.99
68248;SHT30;55064;49.636;12.164;2022-12-05T08:13:59;3.84;99.99
68248;SHT30;55064;49.636;12.164;2022-12-05T08:16:28;3.82;99.99
68248;SHT30;55064;49.636;12.164;2022-12-05T08:19:02;3.83;99.99
68248;SHT30;55064;49.636;12.164;2022-12-05T08:21:31;3.83;99.99
68248;SHT30;55064;49.636;12.164;2022-12-05T08:24:06;3.83;99.99
68248;SHT30;55064;49.636;12.164;2022-12-05T08:26:37;3.82;99.99
68248;SHT30;55064;49.636;12.164;2022-12-05T08:29:10;3.77;99.99
68248;SHT30;55064;49.636;12.164;2022-12-05T08:31:43;3.80;99.99
68248;SHT30;55064;49.636;12.164;2022-12-05T08:34:13;3.79;99.99
68248;SHT30;55064;49.636;12.164;2022-12-05T08:36:39;3.80;99.99
68248;SHT30;55064;49.636;12.164;2022-12-05T08:39:06;3.76;99.99
68248;SHT30;55064;49.636;12.164;2022-12-05T08:41:38;3.80;99.99
68248;SHT30;55064;49.636;12.164;2022-12-05T08:44:04;3.74;99.99
68248;SHT30;55064;49.636;12.164;2022-12-05T08:46:32;3.77;99.99
68248;SHT30;55064;49.636;12.164;2022-12-05T08:48:58;3.79;99.99
68248;SHT30;55064;49.636;12.164;2022-12-05T08:51:24;3.76;99.99
68248;SHT30;55064;49.636;12.164;2022-12-05T08:53:51;3.77;99.99
68248;SHT30;55064;49.636;12.164;2022-12-05T08:56:20;3.82;99.99
68248;SHT30;55064;49.636;12.164;2022-12-05T08:58:46;3.79;99.99
68248;SHT30;55064;49.636;12.164;2022-12-05T09:01:14;3.76;99.99
68248;SHT30;55064;49.636;12.164;2022-12-05T09:03:41;3.73;99.99
68248;SHT30;55064;49.636;12.164;2022-12-05T09:06:12;3.76;99.99
68248;SHT30;55064;49.636;12.164;2022-12-05T09:08:42;3.74;99.99
68248;SHT30;55064;49.636;12.164;2022-12-05T09:11:17;3.79;99.76
68248;SHT30;55064;49.636;12.164;2022-12-05T09:13:46;3.74;99.37
68248;SHT30;55064;49.636;12.164;2022-12-05T09:16:22;3.79;99.31
68248;SHT30;55064;49.636;12.164;2022-12-05T09:18:49;3.77;99.06
68248;SHT30;55064;49.636;12.164;2022-12-05T09:21:20;3.72;98.89
68248;SHT30;55064;49.636;12.164;2022-12-05T09:23:51;3.74;99.01
68248;SHT30;55064;49.636;12.164;2022-12-05T09:26:19;3.80;99.09
68248;SHT30;55064;49.636;12.164;2022-12-05T09:28:45;3.79;98.98
68248;SHT30;55064;49.636;12.164;2022-12-05T09:31:17;3.82;98.98
68248;SHT30;55064;49.636;12.164;2022-12-05T09:33:43;3.80;98.94
68248;SHT30;55064;49.636;12.164;2022-12-05T09:36:15;3.77;98.86
68248;SHT30;55064;49.636;12.164;2022-12-05T09:38:41;3.79;98.86
68248;SHT30;55064;49.636;12.164;2022-12-05T09:47:35;3.73;98.72
68248;SHT30;55064;49.636;12.164;2022-12-05T09:53:01;3.77;98.49
68248;SHT30;55064;49.636;12.164;2022-12-05T09:58:32;3.74;98.35
68248;SHT30;55064;49.636;12.164;2022-12-05T10:06:39;3.73;98.11
68248;SHT30;55064;49.636;12.164;2022-12-05T10:09:26;3.72;97.99
68248;SHT30;55064;49.636;12.164;2022-12-05T10:15:01;3.70;98.12
68248;SHT30;55064;49.636;12.164;2022-12-05T10:17:33;3.72;97.72
68248;SHT30;55064;49.636;12.164;2022-12-05T10:20:03;3.67;97.44
68248;SHT30;55064;49.636;12.164;2022-12-05T10:23:03;3.70;97.67
68248;SHT30;55064;49.636;12.164;2022-12-05T10:25:31;3.76;97.82
68248;SHT30;55064;49.636;12.164;2022-12-05T10:28:00;3.73;97.52
68248;SHT30;55064;49.636;12.164;2022-12-05T10:30:31;3.73;97.34
68248;SHT30;55064;49.636;12.164;2022-12-05T10:33:00;3.72;97.16
68248;SHT30;55064;49.636;12.164;2022-12-05T10:35:37;3.74;97.32
68248;SHT30;55064;49.636;12.164;2022-12-05T10:38:10;3.76;97.23
68248;SHT30;55064;49.636;12.164;2022-12-05T10:40:41;3.72;97.17
68248;SHT30;55064;49.636;12.164;2022-12-05T10:43:21;3.73;96.97
68248;SHT30;55064;49.636;12.164;2022-12-05T10:45:50;3.77;97.17
68248;SHT30;55064;49.636;12.164;2022-12-05T10:48:25;3.82;97.16
68248;SHT30;55064;49.636;12.164;2022-12-05T10:50:55;3.77;97.41
68248;SHT30;55064;49.636;12.164;2022-12-05T10:53:30;3.79;97.11
68248;SHT30;55064;49.636;12.164;2022-12-05T10:55:56;3.74;96.61
68248;SHT30;55064;49.636;12.164;2022-12-05T10:58:27;3.73;96.56
68248;SHT30;55064;49.636;12.164;2022-12-05T11:01:07;3.77;96.77
68248;SHT30;55064;49.636;12.164;2022-12-05T11:03:39;3.82;97.12
68248;SHT30;55064;49.636;12.164;2022-12-05T11:09:16;3.89;97.48
68248;SHT30;55064;49.636;12.164;2022-12-05T11:14:26;3.86;97.26
68248;SHT30;55064;49.636;12.164;2022-12-05T11:16:58;3.83;97.54
68248;SHT30;55064;49.636;12.164;2022-12-05T11:22:00;3.76;97.35
68248;SHT30;55064;49.636;12.164;2022-12-05T11:27:25;3.86;97.46
68248;SHT30;55064;49.636;12.164;2022-12-05T11:30:30;3.82;97.34
68248;SHT30;55064;49.636;12.164;2022-12-05T11:32:49;3.80;97.82
68248;SHT30;55064;49.636;12.164;2022-12-05T11:37:53;3.84;97.87
68248;SHT30;55064;49.636;12.164;2022-12-05T11:43:45;3.84;97.77
68248;SHT30;55064;49.636;12.164;2022-12-05T11:49:23;3.84;98.16
68248;SHT30;55064;49.636;12.164;2022-12-05T12:03:02;3.91;97.67
68248;SHT30;55064;49.636;12.164;2022-12-05T12:14:12;3.84;97.49
68248;SHT30;55064;49.636;12.164;2022-12-05T12:17:20;3.82;97.82
68248;SHT30;55064;49.636;12.164;2022-12-05T12:24:56;3.80;97.22
68248;SHT30;55064;49.636;12.164;2022-12-05T12:27:30;3.82;97.57
68248;SHT30;55064;49.636;12.164;2022-12-05T12:33:03;3.76;97.51
68248;SHT30;55064;49.636;12.164;2022-12-05T12:39:14;3.73;97.54
68248;SHT30;55064;49.636;12.164;2022-12-05T12:42:19;3.73;98.08
68248;SHT30;55064;49.636;12.164;2022-12-05T12:50:23;3.73;98.15
68248;SHT30;55064;49.636;12.164;2022-12-05T12:56:11;3.63;97.52
68248;SHT30;55064;49.636;12.164;2022-12-05T13:04:16;3.65;98.31
68248;SHT30;55064;49.636;12.164;2022-12-05T13:09:33;3.66;98.43
68248;SHT30;55064;49.636;12.164;2022-12-05T13:12:13;3.60;98.40
68248;SHT30;55064;49.636;12.164;2022-12-05T13:14:57;3.63;97.90
68248;SHT30;55064;49.636;12.164;2022-12-05T13:17:26;3.65;97.86
68248;SHT30;55064;49.636;12.164;2022-12-05T13:19:53;3.63;98.03
68248;SHT30;55064;49.636;12.164;2022-12-05T13:22:25;3.60;98.21
68248;SHT30;55064;49.636;12.164;2022-12-05T13:25:23;3.54;98.01
68248;SHT30;55064;49.636;12.164;2022-12-05T13:28:06;3.55;98.32
68248;SHT30;55064;49.636;12.164;2022-12-05T13:30:36;3.56;98.74
68248;SHT30;55064;49.636;12.164;2022-12-05T13:33:24;3.55;98.88
68248;SHT30;55064;49.636;12.164;2022-12-05T13:35:57;3.52;98.87
68248;SHT30;55064;49.636;12.164;2022-12-05T13:46:33;3.59;99.07
68248;SHT30;55064;49.636;12.164;2022-12-05T13:49:40;3.56;98.77
68248;SHT30;55064;49.636;12.164;2022-12-05T13:52:12;3.55;98.17
68248;SHT30;55064;49.636;12.164;2022-12-05T13:54:44;3.58;98.11
68248;SHT30;55064;49.636;12.164;2022-12-05T13:57:47;3.55;97.93
68248;SHT30;55064;49.636;12.164;2022-12-05T14:07:54;3.54;97.76
68248;SHT30;55064;49.636;12.164;2022-12-05T14:13:00;3.49;98.03
68248;SHT30;55064;49.636;12.164;2022-12-05T14:15:34;3.48;97.84
68248;SHT30;55064;49.636;12.164;2022-12-05T14:21:32;3.40;97.08
68248;SHT30;55064;49.636;12.164;2022-12-05T14:24:06;3.40;97.75
68248;SHT30;55064;49.636;12.164;2022-12-05T14:32:27;3.38;97.89
68248;SHT30;55064;49.636;12.164;2022-12-05T14:37:28;3.42;98.32
68248;SHT30;55064;49.636;12.164;2022-12-05T14:39:57;3.40;98.45
68248;SHT30;55064;49.636;12.164;2022-12-05T14:42:50;3.40;98.17
68248;SHT30;55064;49.636;12.164;2022-12-05T14:47:57;3.39;97.70
68248;SHT30;55064;49.636;12.164;2022-12-05T15:01:20;3.29;97.72
68248;SHT30;55064;49.636;12.164;2022-12-05T15:06:23;3.32;98.34
68248;SHT30;55064;49.636;12.164;2022-12-05T15:08:54;3.35;98.64
68248;SHT30;55064;49.636;12.164;2022-12-05T15:11:22;3.32;98.48
68248;SHT30;55064;49.636;12.164;2022-12-05T15:13:59;3.29;98.33
68248;SHT30;55064;49.636;12.164;2022-12-05T15:16:28;3.24;98.17
68248;SHT30;55064;49.636;12.164;2022-12-05T15:19:05;3.22;97.96
68248;SHT30;55064;49.636;12.164;2022-12-05T15:21:38;3.19;97.88
68248;SHT30;55064;49.636;12.164;2022-12-05T15:24:15;3.15;97.73
68248;SHT30;55064;49.636;12.164;2022-12-05T15:29:24;3.11;97.69
68248;SHT30;55064;49.636;12.164;2022-12-05T15:31:58;3.07;97.51
68248;SHT30;55064;49.636;12.164;2022-12-05T15:39:58;3.03;97.54
68248;SHT30;55064;49.636;12.164;2022-12-05T15:42:26;3.03;97.56
68248;SHT30;55064;49.636;12.164;2022-12-05T15:44:59;2.97;96.63
68248;SHT30;55064;49.636;12.164;2022-12-05T15:47:34;2.97;97.22
68248;SHT30;55064;49.636;12.164;2022-12-05T15:50:02;2.99;97.10
68248;SHT30;55064;49.636;12.164;2022-12-05T15:52:43;2.99;97.10
68248;SHT30;55064;49.636;12.164;2022-12-05T15:55:15;3.03;97.14
68248;SHT30;55064;49.636;12.164;2022-12-05T15:57:52;3.03;97.23
68248;SHT30;55064;49.636;12.164;2022-12-05T16:00:21;3.01;97.39
68248;SHT30;55064;49.636;12.164;2022-12-05T16:05:37;2.97;97.11
68248;SHT30;55064;49.636;12.164;2022-12-05T16:08:06;2.94;97.60
68248;SHT30;55064;49.636;12.164;2022-12-05T16:10:35;2.91;97.93
68248;SHT30;55064;49.636;12.164;2022-12-05T16:13:06;2.93;98.08
68248;SHT30;55064;49.636;12.164;2022-12-05T16:15:41;2.97;98.03
68248;SHT30;55064;49.636;12.164;2022-12-05T16:18:27;2.96;98.11
68248;SHT30;55064;49.636;12.164;2022-12-05T16:20:54;2.96;98.34
68248;SHT30;55064;49.636;12.164;2022-12-05T16:23:29;2.99;98.49
68248;SHT30;55064;49.636;12.164;2022-12-05T16:36:28;3.04;98.44
68248;SHT30;55064;49.636;12.164;2022-12-05T16:39:05;3.00;98.91
68248;SHT30;55064;49.636;12.164;2022-12-05T16:41:37;3.00;98.87
68248;SHT30;55064;49.636;12.164;2022-12-05T16:44:03;2.89;99.21
68248;SHT30;55064;49.636;12.164;2022-12-05T16:52:23;2.96;98.71
68248;SHT30;55064;49.636;12.164;2022-12-05T16:57:59;2.91;99.22
68248;SHT30;55064;49.636;12.164;2022-12-05T17:00:45;2.94;99.20
68248;SHT30;55064;49.636;12.164;2022-12-05T17:03:19;2.96;98.75
68248;SHT30;55064;49.636;12.164;2022-12-05T17:05:45;2.99;98.73
68248;SHT30;55064;49.636;12.164;2022-12-05T17:08:10;2.96;98.78
68248;SHT30;55064;49.636;12.164;2022-12-05T17:10:35;2.91;99.25
68248;SHT30;55064;49.636;12.164;2022-12-05T17:13:02;2.93;99.09
68248;SHT30;55064;49.636;12.164;2022-12-05T17:15:28;2.89;99.72
68248;SHT30;55064;49.636;12.164;2022-12-05T17:17:56;2.89;99.46
68248;SHT30;55064;49.636;12.164;2022-12-05T17:20:24;2.89;99.46
68248;SHT30;55064;49.636;12.164;2022-12-05T17:26:16;2.93;99.52
68248;SHT30;55064;49.636;12.164;2022-12-05T17:28:42;2.96;99.47
68248;SHT30;55064;49.636;12.164;2022-12-05T17:31:12;2.97;99.43
68248;SHT30;55064;49.636;12.164;2022-12-05T17:33:40;2.99;99.64
68248;SHT30;55064;49.636;12.164;2022-12-05T17:36:09;3.04;99.65
68248;SHT30;55064;49.636;12.164;2022-12-05T17:38:34;3.03;99.67
68248;SHT30;55064;49.636;12.164;2022-12-05T17:40:59;3.03;99.60
68248;SHT30;55064;49.636;12.164;2022-12-05T17:43:28;3.03;99.81
68248;SHT30;55064;49.636;12.164;2022-12-05T17:45:54;3.04;99.87
68248;SHT30;55064;49.636;12.164;2022-12-05T17:48:25;3.03;99.96
68248;SHT30;55064;49.636;12.164;2022-12-05T17:50:51;3.08;99.85
68248;SHT30;55064;49.636;12.164;2022-12-05T17:53:19;3.08;99.84
68248;SHT30;55064;49.636;12.164;2022-12-05T17:55:45;3.03;99.99
68248;SHT30;55064;49.636;12.164;2022-12-05T17:58:13;3.03;99.99
68248;SHT30;55064;49.636;12.164;2022-12-05T18:00:45;3.01;99.99
68248;SHT30;55064;49.636;12.164;2022-12-05T18:03:14;3.03;99.99
68248;SHT30;55064;49.636;12.164;2022-12-05T18:05:40;3.01;99.99
68248;SHT30;55064;49.636;12.164;2022-12-05T18:08:06;3.04;99.99
68248;SHT30;55064;49.636;12.164;2022-12-05T18:10:33;3.05;99.99
68248;SHT30;55064;49.636;12.164;2022-12-05T18:12:59;3.01;99.99
68248;SHT30;55064;49.636;12.164;2022-12-05T18:15:24;2.99;99.99
68248;SHT30;55064;49.636;12.164;2022-12-05T18:17:52;3.03;99.99
68248;SHT30;55064;49.636;12.164;2022-12-05T18:20:19;3.08;99.99
68248;SHT30;55064;49.636;12.164;2022-12-05T18:22:45;2.96;99.99
68248;SHT30;55064;49.636;12.164;2022-12-05T18:25:13;3.00;99.99
68248;SHT30;55064;49.636;12.164;2022-12-05T18:27:42;2.99;99.99
68248;SHT30;55064;49.636;12.164;2022-12-05T18:30:09;3.01;99.99
68248;SHT30;55064;49.636;12.164;2022-12-05T18:32:38;2.94;99.99
68248;SHT30;55064;49.636;12.164;2022-12-05T18:35:04;2.96;99.99
68248;SHT30;55064;49.636;12.164;2022-12-05T18:37:38;2.96;99.99
68248;SHT30;55064;49.636;12.164;2022-12-05T18:40:09;2.91;99.99
68248;SHT30;55064;49.636;12.164;2022-12-05T18:42:37;2.93;99.99
68248;SHT30;55064;49.636;12.164;2022-12-05T18:45:02;2.93;99.99
68248;SHT30;55064;49.636;12.164;2022-12-05T18:47:28;2.91;99.99
68248;SHT30;55064;49.636;12.164;2022-12-05T18:49:57;2.94;99.99
68248;SHT30;55064;49.636;12.164;2022-12-05T18:52:23;2.93;99.99
68248;SHT30;55064;49.636;12.164;2022-12-05T18:54:48;2.94;99.99
68248;SHT30;55064;49.636;12.164;2022-12-05T18:57:13;2.94;99.99
68248;SHT30;55064;49.636;12.164;2022-12-05T18:59:41;2.91;99.99
68248;SHT30;55064;49.636;12.164;2022-12-05T19:02:07;2.83;99.99
68248;SHT30;55064;49.636;12.164;2022-12-05T19:04:36;2.81;99.99
68248;SHT30;55064;49.636;12.164;2022-12-05T19:07:04;2.75;99.99
68248;SHT30;55064;49.636;12.164;2022-12-05T19:09:30;2.77;99.99
68248;SHT30;55064;49.636;12.164;2022-12-05T19:12:00;2.81;99.99
68248;SHT30;55064;49.636;12.164;2022-12-05T19:14:26;2.81;99.99
68248;SHT30;55064;49.636;12.164;2022-12-05T19:16:54;2.81;99.99
68248;SHT30;55064;49.636;12.164;2022-12-05T19:19:20;2.84;99.99
68248;SHT30;55064;49.636;12.164;2022-12-05T19:21:49;2.87;99.99
68248;SHT30;55064;49.636;12.164;2022-12-05T19:24:16;2.90;99.99
68248;SHT30;55064;49.636;12.164;2022-12-05T19:26:43;2.89;99.99
68248;SHT30;55064;49.636;12.164;2022-12-05T19:29:12;2.91;99.99
68248;SHT30;55064;49.636;12.164;2022-12-05T19:31:40;2.90;99.99